Latest Weather Observations for Gudgenby

IDN60801

Issued at 7:13 pm EST Monday 4 July 2022 (issued every 10 minutes, with the page automatically refreshed every 10 minutes)

About weather observations | Map of weather stations | Latest weather observations for NSW | Other Formats
Station Details ID: 250072 Name: GUDGENBY (PCS) Lat: -35.73 Lon: 148.98 Height: 1035.0 m

Portable automatic weather stations (PAWS) are operated by other organisations, such as Fire and Emergency Services, and are included here by agreement. Portable stations may be deployed to a location for a short period and their location may be subject to change without notice. Wind observations from these stations are provided from heights of either three (3) or ten (10) metres above ground level (AGL).

Data from the previous 72 hours. | See also: Recent months for locations in New South Wales
Date/Time
EST
Temp
°C
App
Temp
°C
Dew
Point
°C
Rel
Hum
%
Delta-T
°C
Wind Press
QNH
hPa
Press
MSL
hPa
Rain since
9am
mm
Dir  Spd
km/h
Gust
km/h
Spd
kts
Gust
kts
04/07:00pm 5.3 -1.3 2.1 80 1.4 NE 26 30 14 16 901.8 - 0.0
04/06:30pm 5.6 -1.3 2.5 80 1.4 NE 28 32 15 17 901.7 - 0.0
04/06:00pm 5.9 -1.8 2.3 78 1.6 NE 32 35 17 19 901.2 - 0.0
04/05:30pm 6.1 -0.6 1.6 73 1.9 NE 26 32 14 17 901.0 - 0.0
04/05:00pm 6.2 -0.5 1.4 71 2.1 NE 26 32 14 17 901.2 - 0.0
04/04:30pm 6.6 -1.3 1.1 68 2.3 NE 32 35 17 19 900.8 - 0.0
04/04:00pm 7.0 -1.8 1.2 66 2.5 NE 37 41 20 22 900.5 - 0.0
04/03:30pm 7.2 -0.8 1.4 66 2.5 NE 33 39 18 21 900.4 - 0.0
04/03:00pm 7.4 -1.4 1.5 66 2.6 NE 37 41 20 22 900.2 - 0.0
04/02:30pm 7.8 -0.1 2.4 68 2.4 NE 33 39 18 21 900.2 - 0.0
04/02:00pm 7.0 0.1 2.5 73 2.0 NE 28 33 15 18 900.6 - 0.0
04/01:30pm 7.3 0.9 3.0 74 1.9 NE 26 33 14 18 900.8 - 0.0
04/01:00pm 7.5 0.6 2.8 72 2.1 NE 28 32 15 17 900.7 - 0.0
04/12:30pm 7.7 0.5 2.8 71 2.2 NE 30 33 16 18 900.9 - 0.0
04/12:00pm 8.2 0.5 3.3 71 2.2 NE 33 39 18 21 901.2 - 0.0
04/11:30am 7.5 0.2 2.6 71 2.2 NE 30 37 16 20 901.4 - 0.0
04/11:00am 6.7 -0.3 2.2 73 2.0 NE 28 32 15 17 901.8 - 0.0
04/10:30am 5.9 -0.5 3.2 83 1.2 NE 26 28 14 15 902.2 - 0.0
04/10:00am 5.3 -1.2 2.7 83 1.1 NE 26 32 14 17 902.2 - 0.0
04/09:30am 5.9 -2.0 2.1 76 1.6 NE 33 39 18 21 901.7 - 0.0
04/09:00am 6.0 -0.6 2.3 77 1.6 NE 26 33 14 18 901.7 - 0.0
04/08:30am 4.6 -2.4 2.2 84 1.0 NE 28 32 15 17 901.6 - 0.0
04/08:00am 4.9 -1.7 1.9 81 1.3 NE 26 33 14 18 901.5 - 0.0
04/07:30am 4.0 -3.1 1.3 82 1.1 NE 28 33 15 18 901.3 - 0.0
04/07:00am 3.8 -3.3 1.1 82 1.1 ENE 28 35 15 19 901.4 - 0.0
04/06:30am 4.0 -3.1 1.2 82 1.2 ENE 28 32 15 17 901.3 - 0.0
04/06:00am 4.0 -3.1 1.2 82 1.2 ENE 28 30 15 16 901.0 - 0.0
04/05:30am 4.0 -3.5 1.3 82 1.1 ENE 30 33 16 18 900.8 - 0.0
04/05:00am 3.9 -2.9 1.1 82 1.2 NE 26 30 14 16 900.5 - 0.0
04/04:30am 3.9 -4.0 1.1 82 1.2 NE 32 37 17 20 900.2 - 0.0
04/04:00am 4.0 -4.8 1.6 84 1.0 NE 37 43 20 23 900.4 - 0.0
04/03:30am 4.1 -3.9 1.7 84 1.0 NE 33 35 18 19 900.5 - 0.0
04/03:00am 4.0 -3.4 1.6 84 1.0 NE 30 32 16 17 900.6 - 0.0
04/02:30am 3.9 -3.6 1.5 84 1.0 NE 30 33 16 18 900.8 - 0.0
04/02:00am 4.2 -3.6 1.8 84 1.0 NE 32 35 17 19 900.9 - 0.0
04/01:30am 4.3 -3.1 1.8 84 1.1 ENE 30 33 16 18 901.2 - 0.0
04/01:00am 4.5 -2.9 2.1 84 1.0 NE 30 35 16 19 901.1 - 0.0
04/12:30am 4.9 -2.9 1.8 80 1.3 NE 32 37 17 20 901.5 - 0.0
04/12:00am 5.1 -1.9 2.0 80 1.3 NE 28 30 15 16 902.0 - 0.0
 
Date/Time
EST
Temp
°C
App
Temp
°C
Dew
Point
°C
Rel
Hum
%
Delta-T
°C
Wind Press
QNH
hPa
Press
MSL
hPa
Rain since
9am
mm
Dir  Spd
km/h
Gust
km/h
Spd
kts
Gust
kts
03/11:30pm 5.1 -1.9 2.1 81 1.3 NE 28 33 15 18 902.0 - 0.0
03/11:00pm 4.9 -1.7 2.3 83 1.1 ENE 26 33 14 18 902.1 - 0.0
03/10:30pm 5.3 -0.9 2.1 80 1.4 NE 24 32 13 17 902.1 - 0.0
03/10:00pm 5.3 -0.9 2.1 80 1.4 NE 24 28 13 15 902.0 - 0.0
03/09:30pm 5.4 -0.1 1.7 77 1.6 NE 20 32 11 17 902.0 - 0.0
03/09:00pm 5.3 -0.2 1.8 78 1.5 ENE 20 28 11 15 902.3 - 0.0
03/08:30pm 5.3 0.0 1.7 77 1.5 NNE 19 24 10 13 902.6 - 0.0
03/08:00pm 5.4 -0.8 2.0 79 1.5 NE 24 30 13 16 902.6 - 0.0
03/07:30pm 5.2 -0.5 2.6 83 1.1 ENE 22 28 12 15 902.7 - 0.0
03/07:00pm 5.4 -1.2 2.2 80 1.4 NE 26 35 14 19 902.4 - 0.0
03/06:30pm 5.5 0.1 2.4 80 1.3 NNE 20 26 11 14 902.5 - 0.0
03/06:00pm 5.6 -0.6 2.3 79 1.4 NE 24 28 13 15 902.4 - 0.0
03/05:30pm 5.5 -0.3 2.4 80 1.3 NNE 22 28 12 15 902.3 - 0.0
03/05:00pm 5.6 0.6 3.6 87 0.9 NNE 19 20 10 11 902.4 - 0.0
03/04:30pm 6.1 -0.3 3.3 82 1.3 NNE 26 35 14 19 902.1 - 0.0
03/04:00pm 6.4 1.1 3.2 80 1.4 NNE 20 28 11 15 902.4 - 0.0
03/03:30pm 6.4 0.4 3.4 81 1.3 NNE 24 32 13 17 902.4 - 0.0
03/03:00pm 7.0 2.3 5.2 88 0.8 NNE 19 26 10 14 902.2 - 0.0
03/02:30pm 7.3 1.8 4.2 81 1.4 NNE 22 39 12 21 902.2 - 0.0
03/02:00pm 7.0 1.5 4.0 81 1.4 NNE 22 30 12 16 902.5 - 0.0
03/01:30pm 7.3 2.4 4.3 81 1.4 NNE 19 26 10 14 902.7 - 0.0
03/01:00pm 7.4 3.7 4.2 80 1.5 NNE 13 19 7 10 902.8 - 0.0
03/12:30pm 7.2 2.6 3.9 79 1.5 NE 17 19 9 10 903.2 - 0.0
03/12:00pm 7.0 1.9 3.2 77 1.7 NNE 19 24 10 13 903.6 - 0.0
03/11:30am 7.1 1.9 3.6 78 1.6 NE 20 28 11 15 903.7 - 0.0
03/11:00am 6.0 0.4 3.7 85 1.0 ENE 22 24 12 13 904.2 - 0.0
03/10:30am 5.3 -0.7 3.4 87 0.8 ENE 24 30 13 16 904.3 - 0.0
03/10:00am 5.0 -1.0 3.2 88 0.8 ENE 24 28 13 15 904.2 - 0.0
03/09:30am 4.9 -1.1 3.1 88 0.8 ENE 24 26 13 14 904.2 - 0.0
03/09:00am 4.7 -1.3 3.1 89 0.7 ENE 24 26 13 14 904.1 - 0.0
03/08:30am 4.4 -1.3 2.9 90 0.7 ENE 22 30 12 16 903.9 - 0.0
03/08:00am 4.3 -1.1 2.7 89 0.7 ENE 20 22 11 12 903.9 - 0.0
03/07:30am 4.1 -1.6 2.8 91 0.6 ENE 22 26 12 14 903.8 - 0.0
03/07:00am 3.9 -1.8 2.7 92 0.5 ENE 22 26 12 14 903.7 - 0.0
03/06:30am 3.8 -2.7 2.7 92 0.5 ENE 26 26 14 14 903.4 - 0.0
03/06:00am 4.0 -1.2 2.7 91 0.6 ENE 19 22 10 12 903.3 - 0.0
03/05:30am 4.1 -1.6 2.6 90 0.6 ENE 22 26 12 14 903.1 - 0.0
03/05:00am 4.0 -1.2 2.7 91 0.6 ENE 19 20 10 11 903.0 - 0.0
03/04:30am 4.2 -1.5 2.7 90 0.6 ENE 22 26 12 14 903.0 - 0.0
03/04:00am 4.0 -1.7 2.6 91 0.6 ENE 22 26 12 14 903.3 - 0.0
03/03:30am 4.1 -1.6 2.6 90 0.6 ENE 22 24 12 13 903.3 - 0.0
03/03:00am 4.4 -1.3 2.7 89 0.7 ENE 22 26 12 14 903.3 - 0.0
03/02:30am 4.5 -0.9 2.6 87 0.8 ENE 20 24 11 13 903.6 - 0.0
03/02:00am 4.5 -0.7 2.5 87 0.9 ENE 19 22 10 12 903.6 - 0.0
03/01:30am 4.4 -1.7 2.6 88 0.8 ENE 24 28 13 15 903.6 - 0.0
03/01:00am 4.5 -2.0 2.7 88 0.8 ENE 26 30 14 16 903.5 - 0.0
03/12:30am 4.4 -0.7 2.9 90 0.7 ENE 19 24 10 13 904.2 - 0.0
03/12:00am 4.6 -0.6 2.7 87 0.8 ENE 19 22 10 12 904.4 - 0.0
 
Date/Time
EST
Temp
°C
App
Temp
°C
Dew
Point
°C
Rel
Hum
%
Delta-T
°C
Wind Press
QNH
hPa
Press
MSL
hPa
Rain since
9am
mm
Dir  Spd
km/h
Gust
km/h
Spd
kts
Gust
kts
02/11:30pm 4.3 -1.4 2.9 91 0.6 ENE 22 24 12 13 904.3 - 0.0
02/11:00pm 4.5 -1.2 2.8 89 0.7 ENE 22 26 12 14 904.1 - 0.0
02/10:30pm 4.3 -1.8 2.8 90 0.7 ENE 24 26 13 14 904.1 - 0.0
02/10:00pm 4.7 -0.6 2.9 88 0.8 ENE 20 24 11 13 904.0 - 0.0
02/09:30pm 4.9 -0.5 2.6 85 1.0 ENE 20 26 11 14 904.4 - 0.0
02/09:00pm 5.0 -0.3 2.9 86 0.9 NE 20 26 11 14 904.4 - 0.0
02/08:30pm 5.1 -0.6 2.8 85 1.0 ENE 22 28 12 15 904.2 - 0.0
02/08:00pm 5.3 0.1 2.6 83 1.2 ENE 19 24 10 13 904.1 - 0.0
02/07:30pm 5.3 -0.1 2.7 83 1.1 NE 20 30 11 16 904.0 - 0.0
02/07:00pm 5.4 -0.7 2.7 83 1.2 NE 24 30 13 16 904.0 - 0.0
02/06:30pm 5.4 -0.3 2.8 83 1.1 NE 22 28 12 15 904.0 - 0.0
02/06:00pm 5.5 0.2 2.8 83 1.2 NE 20 26 11 14 904.0 - 0.0
02/05:30pm 5.4 -0.3 2.9 84 1.1 NE 22 28 12 15 903.8 - 0.0
02/05:00pm 5.7 0.0 2.7 81 1.3 NE 22 26 12 14 903.8 - 0.0
02/04:30pm 5.8 0.5 2.8 81 1.3 NNE 20 32 11 17 903.8 - 0.0
02/04:00pm 6.1 0.0 3.0 80 1.4 NNE 24 28 13 15 903.5 - 0.0
02/03:30pm 6.3 0.6 3.1 80 1.4 NNE 22 26 12 14 903.5 - 0.0
02/03:00pm 6.3 1.4 3.9 85 1.1 NE 19 30 10 16 903.6 - 0.0
02/02:30pm 6.5 1.4 4.1 85 1.1 NE 20 24 11 13 903.3 - 0.0
02/02:00pm 6.1 1.0 4.0 86 1.0 NE 20 26 11 14 903.6 - 0.0
02/01:30pm 6.2 1.0 3.7 84 1.1 NE 20 24 11 13 903.8 - 0.0
02/01:00pm 6.6 1.4 3.8 82 1.3 NE 20 22 11 12 903.8 - 0.0
02/12:30pm 6.4 1.2 3.5 82 1.3 NE 20 24 11 13 904.1 - 0.0
02/12:00pm 6.1 0.8 3.0 80 1.4 NE 20 26 11 14 904.6 - 0.0
02/11:30am 6.0 0.0 3.5 84 1.1 NE 24 28 13 15 904.8 - 0.0
02/11:00am 6.1 0.0 2.9 80 1.4 ENE 24 30 13 16 905.2 - 0.0
02/10:30am 5.1 -1.0 2.7 84 1.0 ENE 24 26 13 14 905.6 - 0.0
02/10:00am 4.9 -1.6 2.9 87 0.9 NE 26 28 14 15 905.6 - 0.0
02/09:30am 4.8 -1.4 2.3 84 1.1 NE 24 30 13 16 905.6 - 0.0
02/09:00am 4.3 -1.6 1.9 84 1.0 ENE 22 26 12 14 905.5 - 2.4
02/08:30am 4.1 -1.8 1.9 85 0.9 ENE 22 26 12 14 905.7 - 2.4
02/08:00am 3.7 -2.2 1.7 87 0.8 ENE 22 24 12 13 905.5 - 2.4
02/07:30am 3.5 -2.4 1.7 88 0.8 ENE 22 24 12 13 905.5 - 2.4
02/07:00am 3.4 -2.5 1.7 89 0.7 ENE 22 24 12 13 905.4 - 2.4
02/06:30am 3.2 -2.3 1.7 90 0.6 ENE 20 24 11 13 905.0 - 2.4
02/06:00am 3.1 -3.2 1.6 90 0.6 ENE 24 28 13 15 904.8 - 2.4
02/05:30am 3.1 -3.2 1.5 89 0.7 ENE 24 28 13 15 904.8 - 2.4
02/05:00am 3.0 -3.3 1.7 91 0.5 ENE 24 28 13 15 904.6 - 2.4
02/04:30am 3.0 -2.9 1.5 90 0.6 ENE 22 26 12 14 904.7 - 2.4
02/04:00am 3.0 -3.3 1.4 89 0.7 ENE 24 26 13 14 904.7 - 2.4
02/03:30am 2.9 -3.0 1.4 90 0.6 ENE 22 26 12 14 904.8 - 2.4
02/03:00am 3.0 -3.3 1.4 89 0.7 ENE 24 30 13 16 904.5 - 2.4
02/02:30am 2.8 -3.5 1.5 91 0.5 ENE 24 28 13 15 904.7 - 2.4
02/02:00am 2.8 -3.5 1.5 91 0.5 ENE 24 28 13 15 905.0 - 2.4
02/01:30am 3.0 -3.3 1.4 89 0.7 ENE 24 26 13 14 905.0 - 2.4
02/01:00am 3.0 -3.3 1.4 89 0.7 ENE 24 26 13 14 905.0 - 2.4
02/12:30am 2.6 -3.7 1.6 93 0.4 ENE 24 30 13 16 905.2 - 2.4
02/12:00am 2.8 -4.3 1.6 92 0.5 ENE 28 30 15 16 905.3 - 2.4
 
Date/Time
EST
Temp
°C
App
Temp
°C
Dew
Point
°C
Rel
Hum
%
Delta-T
°C
Wind Press
QNH
hPa
Press
MSL
hPa
Rain since
9am
mm
Dir  Spd
km/h
Gust
km/h
Spd
kts
Gust
kts
01/11:30pm 2.9 -3.0 1.6 91 0.5 NE 22 28 12 15 905.6 - 2.4
01/11:00pm 3.0 -2.5 1.6 90 0.6 ENE 20 22 11 12 905.7 - 2.4
01/10:30pm 3.1 -2.8 1.7 90 0.6 NE 22 28 12 15 905.7 - 2.4
01/10:00pm 3.1 -2.8 1.5 89 0.7 NE 22 26 12 14 905.7 - 2.4
01/09:30pm 2.8 -3.2 1.3 90 0.6 NE 22 26 12 14 905.8 - 2.4
01/09:00pm 2.9 -3.1 1.2 89 0.7 NE 22 28 12 15 906.3 - 2.4
01/08:30pm 3.1 -3.7 1.0 86 0.9 NE 26 30 14 16 906.4 - 2.4
01/08:00pm 3.2 -3.1 1.5 89 0.7 NE 24 26 13 14 906.0 - 2.4
01/07:30pm 3.3 -3.0 1.5 88 0.7 NE 24 28 13 15 905.7 - 2.4

Other formats

Comma delimited format used in spreadsheet applications
http://www.bom.gov.au/fwo/IDN60801/IDN60801.99765.axf

JavaScript Object Notation format (JSON) in row-major order
http://www.bom.gov.au/fwo/IDN60801/IDN60801.99765.json

Data quality

Most of these data are generated automatically and are frequently updated. Quality checks on data are not normally performed. It is possible for incorrect values to appear. Refer to information at About Latest Weather Observations and please check the disclaimer before using these data.